Time;durP1;ratioP1;P1;durP2;ratioP2;P2;SDS_P1;SDS_P2;PMS_P1;PMS_P2;Temp;Humidity;BMP_temperature;BMP_pressure;BME280_temperature;BME280_humidity;BME280_pressure;Samples;Min_cycle;Max_cycle;Signal;HPM_P1;HPM_P2
2021/11/24 00:01:15;;;;;;;9.93;4.30;;;7.40;99.90;;;;;;4993375;28;20109;-60
2021/11/24 00:03:40;;;;;;;7.28;4.68;;;7.40;99.90;;;;;;4993325;28;20477;-60
2021/11/24 00:06:06;;;;;;;5.78;4.25;;;7.40;99.90;;;;;;4993189;28;20128;-60
2021/11/24 00:08:32;;;;;;;9.23;4.80;;;7.40;99.90;;;;;;4993180;28;20493;-60
2021/11/24 00:10:58;;;;;;;5.18;4.05;;;7.40;99.90;;;;;;4993113;28;20078;-60
2021/11/24 00:13:23;;;;;;;4.85;3.70;;;7.40;99.90;;;;;;4993199;28;20050;-60
2021/11/24 00:15:49;;;;;;;6.22;4.03;;;7.40;99.90;;;;;;4993110;28;20432;-60
2021/11/24 00:18:15;;;;;;;9.70;4.57;;;7.40;99.90;;;;;;4992978;28;20042;-60
2021/11/24 00:20:40;;;;;;;5.07;4.20;;;7.40;99.90;;;;;;4992932;28;20085;-60
2021/11/24 00:23:06;;;;;;;4.63;4.05;;;7.40;99.90;;;;;;4992943;28;20488;-60
2021/11/24 00:25:32;;;;;;;7.50;4.30;;;7.50;99.90;;;;;;4992851;28;20463;-60
2021/11/24 00:27:57;;;;;;;6.65;3.80;;;7.40;99.90;;;;;;4993127;28;20125;-60
2021/11/24 00:30:23;;;;;;;5.68;4.43;;;7.50;99.90;;;;;;4992975;28;20041;-60
2021/11/24 00:32:50;;;;;;;8.80;4.25;;;7.50;99.90;;;;;;4992830;28;20065;-60
2021/11/24 00:35:16;;;;;;;8.88;4.45;;;7.50;99.90;;;;;;4992902;28;20089;-60
2021/11/24 00:37:42;;;;;;;6.68;4.15;;;7.40;99.90;;;;;;4992939;28;20090;-60
2021/11/24 00:40:09;;;;;;;9.43;4.60;;;7.50;99.90;;;;;;4992809;28;20551;-60
2021/11/24 00:42:34;;;;;;;5.63;4.13;;;7.50;99.90;;;;;;4992900;28;20038;-60
2021/11/24 00:45:01;;;;;;;8.15;4.22;;;7.50;99.90;;;;;;4992817;28;20507;-60
2021/11/24 00:47:26;;;;;;;5.57;4.13;;;7.50;99.90;;;;;;4992453;28;20507;-60
2021/11/24 00:49:52;;;;;;;9.50;4.80;;;7.60;99.90;;;;;;4992650;28;20034;-60
2021/11/24 00:52:17;;;;;;;11.65;4.20;;;7.60;99.90;;;;;;4992574;28;20100;-60
2021/11/24 00:54:43;;;;;;;5.78;4.00;;;7.50;99.90;;;;;;4991398;28;20042;-60
2021/11/24 00:57:09;;;;;;;5.80;4.20;;;7.50;99.90;;;;;;4992720;28;20038;-60
2021/11/24 00:59:34;;;;;;;4.78;3.80;;;7.60;99.90;;;;;;4992592;28;20042;-60
2021/11/24 01:02:00;;;;;;;8.45;4.05;;;7.60;99.90;;;;;;4992627;28;20116;-60
2021/11/24 01:04:26;;;;;;;6.65;3.92;;;7.60;99.90;;;;;;4992669;28;20049;-60
2021/11/24 01:06:52;;;;;;;8.38;4.68;;;7.50;99.90;;;;;;4992440;28;20045;-60
2021/11/24 01:09:18;;;;;;;5.45;3.53;;;7.50;99.90;;;;;;4992434;28;20404;-60
2021/11/24 01:11:43;;;;;;;5.18;3.95;;;7.50;99.90;;;;;;4991444;28;20050;-60
2021/11/24 01:14:10;;;;;;;5.20;3.90;;;7.60;99.90;;;;;;4992532;28;20057;-60
2021/11/24 01:16:35;;;;;;;5.72;3.90;;;7.60;99.90;;;;;;4992410;28;20038;-60
2021/11/24 01:19:01;;;;;;;7.07;3.92;;;7.60;99.90;;;;;;4992433;28;20412;-60
2021/11/24 01:21:27;;;;;;;7.50;3.50;;;7.60;99.90;;;;;;4992238;28;20066;-61
2021/11/24 01:23:52;;;;;;;5.80;3.28;;;7.60;99.90;;;;;;4992506;28;20053;-60
2021/11/24 01:26:19;;;;;;;4.78;3.08;;;7.70;99.90;;;;;;4992386;28;20197;-60
2021/11/24 01:28:45;;;;;;;7.07;3.10;;;7.60;99.90;;;;;;4993163;28;20132;-60
2021/11/24 01:31:10;;;;;;;6.47;3.22;;;7.60;99.90;;;;;;4996201;28;20078;-60
2021/11/24 01:33:36;;;;;;;5.38;3.80;;;7.60;99.90;;;;;;4996106;28;20396;-60
2021/11/24 01:36:03;;;;;;;5.70;3.33;;;7.60;99.90;;;;;;4995902;28;20045;-60
2021/11/24 01:38:28;;;;;;;3.97;3.20;;;7.60;99.90;;;;;;4996221;28;20429;-60
2021/11/24 01:40:54;;;;;;;7.35;2.97;;;7.60;99.90;;;;;;4995980;28;20042;-60
2021/11/24 01:43:20;;;;;;;4.57;2.95;;;7.60;99.90;;;;;;4995839;28;20081;-60
2021/11/24 01:45:47;;;;;;;7.40;3.15;;;7.60;99.90;;;;;;4995685;28;20414;-60
2021/11/24 01:48:13;;;;;;;4.68;3.03;;;7.60;99.90;;;;;;4995782;28;20126;-60
2021/11/24 01:50:39;;;;;;;3.65;2.80;;;7.70;99.90;;;;;;4995771;28;20121;-60
2021/11/24 01:53:05;;;;;;;5.78;2.33;;;7.60;99.90;;;;;;4995879;28;20038;-60
2021/11/24 01:55:31;;;;;;;6.50;2.85;;;7.70;99.90;;;;;;4995854;28;20042;-60
2021/11/24 01:57:57;;;;;;;3.47;2.35;;;7.70;99.90;;;;;;4995719;28;20125;-60
2021/11/24 02:00:26;;;;;;;3.58;2.38;;;7.70;99.90;;;;;;4995543;28;20125;-60
2021/11/24 02:02:52;;;;;;;4.30;2.55;;;7.70;99.90;;;;;;4995439;28;20078;-60
2021/11/24 02:05:18;;;;;;;3.55;2.33;;;7.70;99.90;;;;;;4995363;28;20077;-60
2021/11/24 02:07:44;;;;;;;6.25;2.80;;;7.70;99.90;;;;;;4995623;28;20129;-60
2021/11/24 02:10:09;;;;;;;3.53;2.20;;;7.70;99.90;;;;;;4995526;28;20516;-60
2021/11/24 02:12:37;;;;;;;5.25;2.50;;;7.60;99.90;;;;;;4995354;28;20435;-60
2021/11/24 02:15:04;;;;;;;3.95;2.50;;;7.60;99.90;;;;;;4995405;28;20081;-60
2021/11/24 02:17:30;;;;;;;4.10;2.30;;;7.60;99.90;;;;;;4995343;28;20034;-60
2021/11/24 02:19:55;;;;;;;4.30;2.05;;;7.60;99.90;;;;;;4995112;28;20468;-60
2021/11/24 02:22:21;;;;;;;3.95;2.70;;;7.60;99.90;;;;;;4995325;28;20089;-60
2021/11/24 02:24:47;;;;;;;2.40;2.03;;;7.60;99.90;;;;;;4995460;28;20041;-60
2021/11/24 02:27:14;;;;;;;4.07;2.33;;;7.60;99.90;;;;;;4995237;28;20113;-60
2021/11/24 02:29:40;;;;;;;4.93;2.60;;;7.60;99.90;;;;;;4995020;28;20444;-60
2021/11/24 02:32:07;;;;;;;5.30;2.63;;;7.60;99.90;;;;;;4995029;28;20088;-60
2021/11/24 02:34:33;;;;;;;4.32;2.20;;;7.60;99.90;;;;;;4994801;28;20467;-60
2021/11/24 02:36:59;;;;;;;5.60;2.45;;;7.60;99.90;;;;;;4995140;28;20057;-60
2021/11/24 02:39:25;;;;;;;5.43;2.13;;;7.60;99.90;;;;;;4994656;28;20090;-60
2021/11/24 02:41:51;;;;;;;2.90;2.20;;;7.60;99.90;;;;;;4993926;28;20042;-60
2021/11/24 02:44:24;;;;;;;3.78;2.28;;;7.60;99.90;;;;;;4994599;28;20374;-60
2021/11/24 02:46:52;;;;;;;4.32;2.10;;;7.60;99.90;;;;;;4994775;28;20034;-60
2021/11/24 02:49:17;;;;;;;7.90;2.45;;;7.60;99.90;;;;;;4994859;28;20846;-60
2021/11/24 02:51:44;;;;;;;3.88;2.67;;;7.60;99.90;;;;;;4994627;28;20151;-60
2021/11/24 02:54:11;;;;;;;4.63;2.10;;;7.60;99.90;;;;;;4994705;28;20046;-60
2021/11/24 02:56:39;;;;;;;3.30;2.20;;;7.60;99.90;;;;;;4994541;28;20038;-60
2021/11/24 02:59:06;;;;;;;4.70;2.80;;;7.60;99.90;;;;;;4994710;28;20034;-60
2021/11/24 03:01:32;;;;;;;2.67;1.80;;;7.60;99.90;;;;;;4994527;28;20121;-60
2021/11/24 03:03:57;;;;;;;3.25;2.20;;;7.60;99.90;;;;;;4994617;28;20118;-60
2021/11/24 03:06:23;;;;;;;5.00;2.20;;;7.60;99.90;;;;;;4994453;28;20113;-60
2021/11/24 03:08:49;;;;;;;3.20;2.00;;;7.50;99.90;;;;;;4994468;28;20114;-60
2021/11/24 03:11:14;;;;;;;4.55;1.73;;;7.60;99.90;;;;;;4993088;28;20086;-60
2021/11/24 03:13:40;;;;;;;3.40;1.85;;;7.50;99.90;;;;;;4994624;28;20043;-60
2021/11/24 03:16:05;;;;;;;6.05;1.95;;;7.60;99.90;;;;;;4994253;28;20042;-60
2021/11/24 03:18:31;;;;;;;3.88;2.30;;;7.60;99.90;;;;;;4994285;28;20121;-60
2021/11/24 03:20:57;;;;;;;7.07;1.77;;;7.60;99.90;;;;;;4994024;28;20116;-60
2021/11/24 03:23:22;;;;;;;2.58;1.98;;;7.50;99.90;;;;;;4994125;28;20047;-60
2021/11/24 03:25:48;;;;;;;3.47;1.90;;;7.60;99.90;;;;;;4994055;28;20038;-60
2021/11/24 03:28:14;;;;;;;6.40;1.85;;;7.50;99.90;;;;;;4993949;28;20038;-60
2021/11/24 03:30:40;;;;;;;2.63;1.65;;;7.50;99.90;;;;;;4993883;28;20044;-60
2021/11/24 03:33:06;;;;;;;6.95;2.00;;;7.50;99.90;;;;;;4993893;28;20081;-60
2021/11/24 03:35:34;;;;;;;2.95;1.80;;;7.50;99.90;;;;;;4993766;28;20148;-60
2021/11/24 03:38:00;;;;;;;3.75;2.17;;;7.50;99.90;;;;;;4993872;28;20385;-60
2021/11/24 03:40:30;;;;;;;2.80;1.65;;;7.50;99.90;;;;;;4993587;28;20558;-60
2021/11/24 03:42:57;;;;;;;1.98;1.60;;;7.60;99.90;;;;;;4993502;28;20053;-60
2021/11/24 03:45:35;;;;;;;4.53;1.58;;;7.50;99.90;;;;;;4993338;28;20034;-60
2021/11/24 03:48:03;;;;;;;4.03;1.42;;;7.50;99.90;;;;;;4993533;28;20070;-60
2021/11/24 03:50:29;;;;;;;3.40;1.70;;;7.50;99.90;;;;;;4993387;28;20113;-60
2021/11/24 03:52:54;;;;;;;4.72;1.83;;;7.50;99.90;;;;;;4992898;28;20046;-60
2021/11/24 03:55:20;;;;;;;5.45;1.98;;;7.50;99.90;;;;;;4993214;28;20046;-60
2021/11/24 03:57:46;;;;;;;3.17;1.50;;;7.50;99.90;;;;;;4993135;28;20042;-60
2021/11/24 04:00:23;;;;;;;3.28;1.30;;;7.50;99.90;;;;;;4993311;28;20551;-60
2021/11/24 04:02:49;;;;;;;1.67;1.45;;;7.60;99.90;;;;;;4993338;28;20057;-60
2021/11/24 04:05:16;;;;;;;4.03;1.70;;;7.50;99.90;;;;;;4993271;28;20042;-60
2021/11/24 04:07:42;;;;;;;2.25;1.65;;;7.60;99.90;;;;;;4993470;28;20080;-60
2021/11/24 04:10:09;;;;;;;5.80;1.58;;;7.50;99.90;;;;;;4993131;28;20489;-60
2021/11/24 04:12:37;;;;;;;1.95;1.63;;;7.50;99.90;;;;;;4993075;28;20042;-60
2021/11/24 04:15:05;;;;;;;3.13;1.75;;;7.50;99.90;;;;;;4993383;28;20038;-60
2021/11/24 04:17:30;;;;;;;4.28;1.50;;;7.50;99.90;;;;;;4993134;28;20571;-60
2021/11/24 04:19:57;;;;;;;6.13;2.05;;;7.50;99.90;;;;;;4993090;28;20483;-60
2021/11/24 04:22:23;;;;;;;3.95;1.98;;;7.50;99.90;;;;;;4992634;28;20512;-60
2021/11/24 04:24:48;;;;;;;5.10;1.60;;;7.50;99.90;;;;;;4992714;28;20053;-60
2021/11/24 04:27:14;;;;;;;5.85;1.42;;;7.50;99.90;;;;;;4992843;28;20037;-60
2021/11/24 04:29:40;;;;;;;5.32;1.77;;;7.50;99.90;;;;;;4992861;28;20034;-60
2021/11/24 04:32:07;;;;;;;2.70;1.40;;;7.50;99.90;;;;;;4992733;28;20046;-60
2021/11/24 04:34:33;;;;;;;3.20;1.92;;;7.50;99.90;;;;;;4992638;28;20054;-60
2021/11/24 04:36:59;;;;;;;4.40;1.50;;;7.50;99.90;;;;;;4992620;28;20093;-60
2021/11/24 04:39:24;;;;;;;2.58;2.22;;;7.50;99.90;;;;;;4992528;28;20125;-60
2021/11/24 04:41:50;;;;;;;3.28;1.67;;;7.50;99.90;;;;;;4992610;28;20121;-60
2021/11/24 04:44:16;;;;;;;4.47;1.63;;;7.50;99.90;;;;;;4992669;28;20109;-60
2021/11/24 04:46:41;;;;;;;2.22;1.73;;;7.50;99.90;;;;;;4992420;28;20073;-60
2021/11/24 04:49:07;;;;;;;4.97;1.63;;;7.40;99.90;;;;;;4992522;28;20045;-60
2021/11/24 04:51:32;;;;;;;4.07;1.70;;;7.40;99.90;;;;;;4992388;28;20034;-60
2021/11/24 04:53:58;;;;;;;4.95;1.90;;;7.50;99.90;;;;;;4992317;28;20496;-60
2021/11/24 04:56:24;;;;;;;2.15;1.45;;;7.50;99.90;;;;;;4992281;28;20049;-61
2021/11/24 04:58:58;;;;;;;4.75;1.85;;;7.60;99.90;;;;;;4992438;28;20031;-60
2021/11/24 05:01:24;;;;;;;3.03;2.10;;;7.50;99.90;;;;;;4992420;28;20046;-60
2021/11/24 05:03:50;;;;;;;2.72;1.63;;;7.50;99.90;;;;;;4993494;28;20084;-60
2021/11/24 05:06:18;;;;;;;4.32;2.20;;;7.50;99.90;;;;;;5011490;28;20038;-60
2021/11/24 05:08:44;;;;;;;4.05;2.15;;;7.60;99.90;;;;;;4996268;28;20066;-60
2021/11/24 05:11:11;;;;;;;2.47;2.15;;;7.60;99.90;;;;;;4996384;28;20034;-60
2021/11/24 05:13:38;;;;;;;3.75;1.98;;;7.50;99.90;;;;;;4996336;28;20049;-60
2021/11/24 05:16:05;;;;;;;7.15;1.80;;;7.50;99.90;;;;;;4996224;28;20062;-60
2021/11/24 05:18:45;;;;;;;4.53;1.73;;;7.60;99.90;;;;;;4996184;28;20090;-60
2021/11/24 05:21:15;;;;;;;3.17;2.13;;;7.60;99.90;;;;;;4996107;28;20054;-60
2021/11/24 05:23:43;;;;;;;3.78;1.80;;;7.60;99.90;;;;;;4996181;28;20077;-60
2021/11/24 05:26:10;;;;;;;4.57;1.80;;;7.60;99.90;;;;;;4996149;28;20039;-60
2021/11/24 05:28:36;;;;;;;4.40;1.60;;;7.50;99.90;;;;;;4995976;28;20034;-60
2021/11/24 05:31:02;;;;;;;3.03;1.92;;;7.60;99.90;;;;;;4995993;28;20038;-60
2021/11/24 05:33:28;;;;;;;4.40;1.58;;;7.60;99.90;;;;;;4995969;28;20185;-60
2021/11/24 05:35:54;;;;;;;3.92;1.30;;;7.60;99.90;;;;;;4996185;28;20054;-60
2021/11/24 05:38:20;;;;;;;2.63;1.52;;;7.60;99.90;;;;;;4996194;28;20049;-60
2021/11/24 05:40:46;;;;;;;2.90;1.60;;;7.60;99.90;;;;;;4995798;28;20508;-60
2021/11/24 05:43:13;;;;;;;4.40;1.42;;;7.60;99.90;;;;;;4995746;28;20054;-60
2021/11/24 05:46:11;;;;;;;2.10;1.70;;;7.60;99.90;;;;;;4995682;28;20046;-60
2021/11/24 05:48:29;;;;;;;3.80;1.77;;;7.60;99.90;;;;;;4996485;28;20395;-60
2021/11/24 05:50:55;;;;;;;5.00;1.85;;;7.60;99.90;;;;;;4995667;28;20035;-60
2021/11/24 05:53:20;;;;;;;4.95;1.73;;;7.60;99.90;;;;;;4995469;28;20052;-60
2021/11/24 05:55:48;;;;;;;2.75;1.88;;;7.70;99.90;;;;;;4995537;28;20150;-60
2021/11/24 05:58:14;;;;;;;2.53;2.10;;;7.60;99.90;;;;;;4995378;28;20038;-60
2021/11/24 06:00:41;;;;;;;5.75;2.03;;;7.60;99.90;;;;;;4995411;28;20069;-60
2021/11/24 06:03:07;;;;;;;5.90;1.90;;;7.60;99.90;;;;;;4995155;28;20495;-60
2021/11/24 06:05:33;;;;;;;4.97;1.90;;;7.60;99.90;;;;;;4995498;28;20034;-60
2021/11/24 06:07:58;;;;;;;2.35;1.60;;;7.60;99.90;;;;;;4995238;28;20037;-60
2021/11/24 06:10:24;;;;;;;5.80;1.90;;;7.60;99.90;;;;;;4995161;28;20046;-60
2021/11/24 06:12:50;;;;;;;3.25;1.70;;;7.50;99.90;;;;;;4995254;28;20038;-60
2021/11/24 06:15:16;;;;;;;4.70;1.70;;;7.60;99.90;;;;;;4994860;28;20034;-60
2021/11/24 06:17:43;;;;;;;4.18;1.60;;;7.50;99.90;;;;;;4995207;28;20053;-60
2021/11/24 06:20:10;;;;;;;2.55;1.65;;;7.60;99.90;;;;;;4995141;28;20169;-60
2021/11/24 06:22:36;;;;;;;3.55;1.13;;;7.60;99.90;;;;;;4994828;28;20046;-60
2021/11/24 06:25:02;;;;;;;3.17;1.60;;;7.60;99.90;;;;;;4995043;28;20045;-60
2021/11/24 06:27:27;;;;;;;4.00;1.35;;;7.60;99.90;;;;;;4994987;28;20042;-60
2021/11/24 06:29:53;;;;;;;4.55;2.08;;;7.60;99.90;;;;;;4994687;28;20065;-60
2021/11/24 06:32:18;;;;;;;5.40;1.67;;;7.60;99.90;;;;;;4995025;28;20049;-60
2021/11/24 06:34:44;;;;;;;5.28;1.75;;;7.60;99.90;;;;;;4994752;28;20038;-60
2021/11/24 06:37:10;;;;;;;4.50;1.45;;;7.60;99.90;;;;;;4994946;28;20050;-60
2021/11/24 06:39:35;;;;;;;7.47;1.85;;;7.60;99.90;;;;;;4994975;28;20055;-60
2021/11/24 06:42:01;;;;;;;2.83;1.60;;;7.60;99.90;;;;;;4994612;28;20046;-60
2021/11/24 06:44:27;;;;;;;2.08;1.55;;;7.60;99.90;;;;;;4994542;28;20038;-60
2021/11/24 06:46:52;;;;;;;2.25;1.60;;;7.60;99.90;;;;;;4994786;28;20435;-60
2021/11/24 06:49:18;;;;;;;3.33;1.75;;;7.60;99.90;;;;;;4994659;28;20073;-60
2021/11/24 06:51:44;;;;;;;4.55;1.40;;;7.60;99.90;;;;;;4994379;28;20034;-60
2021/11/24 06:54:09;;;;;;;1.95;1.40;;;7.60;99.90;;;;;;4994547;28;20041;-60
2021/11/24 06:56:36;;;;;;;2.95;1.83;;;7.60;99.90;;;;;;5009651;28;20201;-60
2021/11/24 06:59:02;;;;;;;3.85;1.60;;;7.60;99.90;;;;;;4993041;28;20042;-60
2021/11/24 07:01:28;;;;;;;2.83;1.40;;;7.60;99.90;;;;;;4994158;28;20488;-60
2021/11/24 07:03:53;;;;;;;2.50;1.70;;;7.60;99.90;;;;;;4994409;28;20050;-60
2021/11/24 07:06:19;;;;;;;3.67;1.20;;;7.60;99.90;;;;;;4994267;28;20030;-60
2021/11/24 07:08:45;;;;;;;3.92;1.60;;;7.70;99.90;;;;;;4994178;28;20563;-60
2021/11/24 07:11:11;;;;;;;1.50;1.40;;;7.60;99.90;;;;;;4994123;28;20503;-60
2021/11/24 07:13:36;;;;;;;4.32;1.98;;;7.60;99.90;;;;;;4994334;28;20145;-60
2021/11/24 07:16:02;;;;;;;2.50;1.70;;;7.70;99.90;;;;;;4993841;28;20049;-60
2021/11/24 07:18:28;;;;;;;2.67;1.35;;;7.60;99.90;;;;;;4994263;28;20050;-60
2021/11/24 07:20:54;;;;;;;2.75;1.27;;;7.60;99.90;;;;;;4993942;28;20545;-60
2021/11/24 07:23:19;;;;;;;3.53;1.35;;;7.60;99.90;;;;;;4993762;28;20153;-60
2021/11/24 07:25:45;;;;;;;5.07;1.58;;;7.60;99.90;;;;;;4993527;28;20034;-60
2021/11/24 07:28:13;;;;;;;3.67;1.85;;;7.60;99.90;;;;;;4993258;28;20088;-60
2021/11/24 07:30:38;;;;;;;3.42;1.30;;;7.60;99.90;;;;;;4993949;28;20035;-60
2021/11/24 07:33:04;;;;;;;3.30;1.48;;;7.60;99.90;;;;;;4993808;28;20073;-60
2021/11/24 07:35:32;;;;;;;8.60;1.70;;;7.60;99.90;;;;;;4993489;28;20385;-60
2021/11/24 07:37:57;;;;;;;5.05;1.63;;;7.60;99.90;;;;;;4993627;28;20121;-60
2021/11/24 07:40:23;;;;;;;12.38;1.58;;;7.50;99.90;;;;;;4993553;28;20229;-60
2021/11/24 07:42:50;;;;;;;3.30;1.73;;;7.50;99.90;;;;;;4993373;28;20072;-60
2021/11/24 07:45:16;;;;;;;2.75;1.42;;;7.50;99.90;;;;;;4993450;28;20045;-60
2021/11/24 07:47:42;;;;;;;1.73;1.10;;;7.50;99.90;;;;;;4993316;28;20057;-60
2021/11/24 07:50:08;;;;;;;2.70;1.20;;;7.50;99.90;;;;;;4993471;28;20404;-60
2021/11/24 07:52:34;;;;;;;3.38;1.45;;;7.50;99.90;;;;;;4993317;28;20466;-60
2021/11/24 07:55:00;;;;;;;3.65;1.30;;;7.50;99.90;;;;;;4992595;28;20129;-60
2021/11/24 07:57:25;;;;;;;2.03;1.20;;;7.50;99.90;;;;;;4993125;28;20129;-60
2021/11/24 07:59:51;;;;;;;2.47;1.67;;;7.50;99.90;;;;;;4992135;28;20054;-60
2021/11/24 08:02:17;;;;;;;4.22;1.55;;;7.60;99.90;;;;;;4993209;28;20039;-60
2021/11/24 08:04:43;;;;;;;3.63;1.55;;;7.60;99.90;;;;;;4992946;28;20045;-61
2021/11/24 08:07:08;;;;;;;3.20;1.30;;;7.50;99.90;;;;;;4993262;28;20072;-61
2021/11/24 08:09:34;;;;;;;4.50;1.60;;;7.50;99.90;;;;;;4993143;28;20489;-60
2021/11/24 08:12:00;;;;;;;3.28;1.48;;;7.50;99.90;;;;;;4993115;28;20096;-61
2021/11/24 08:14:26;;;;;;;2.88;1.58;;;7.60;99.90;;;;;;4993227;28;20030;-61
2021/11/24 08:16:52;;;;;;;4.80;1.73;;;7.60;99.90;;;;;;4992860;28;20498;-61
2021/11/24 08:19:18;;;;;;;5.15;1.65;;;7.60;99.90;;;;;;4992951;28;20043;-60
2021/11/24 08:21:44;;;;;;;3.60;1.50;;;7.60;99.90;;;;;;4992687;28;20492;-60
2021/11/24 08:24:10;;;;;;;4.25;1.48;;;7.60;99.90;;;;;;4992682;28;20049;-61
2021/11/24 08:26:36;;;;;;;2.22;1.20;;;7.60;99.90;;;;;;4992759;28;20038;-61
2021/11/24 08:29:03;;;;;;;2.55;1.15;;;7.60;99.90;;;;;;4992885;28;20034;-60
2021/11/24 08:31:29;;;;;;;3.75;1.20;;;7.60;99.90;;;;;;4992811;28;20034;-60
2021/11/24 08:33:55;;;;;;;2.47;1.33;;;7.60;99.90;;;;;;4992687;28;20396;-60
2021/11/24 08:36:20;;;;;;;3.97;1.45;;;7.60;99.90;;;;;;4992488;28;20039;-60
2021/11/24 08:38:46;;;;;;;4.53;1.50;;;7.60;99.90;;;;;;4992617;28;20045;-61
2021/11/24 08:41:13;;;;;;;3.10;1.58;;;7.60;99.90;;;;;;4992648;28;20046;-61
2021/11/24 08:43:41;;;;;;;6.00;1.58;;;7.60;99.90;;;;;;4992642;28;20046;-61
2021/11/24 08:46:08;;;;;;;3.38;1.42;;;7.60;99.90;;;;;;4992429;28;20038;-60
2021/11/24 08:48:34;;;;;;;4.40;1.02;;;7.60;99.90;;;;;;4992587;28;20365;-61
2021/11/24 08:51:00;;;;;;;3.53;1.30;;;7.60;99.90;;;;;;4992375;28;20034;-61
2021/11/24 08:53:26;;;;;;;4.30;1.40;;;7.60;99.90;;;;;;4992337;28;20041;-61
2021/11/24 08:55:51;;;;;;;3.13;1.08;;;7.60;99.90;;;;;;4992310;28;20096;-60
2021/11/24 08:58:17;;;;;;;2.35;1.05;;;7.60;99.90;;;;;;4992576;28;20070;-61
2021/11/24 09:00:43;;;;;;;4.38;1.70;;;7.60;99.90;;;;;;4992465;28;20093;-61
2021/11/24 09:03:12;;;;;;;7.95;1.52;;;7.60;99.90;;;;;;4992268;28;20038;-61
2021/11/24 09:05:38;;;;;;;1.80;1.42;;;7.60;99.90;;;;;;4992359;28;20077;-61
2021/11/24 09:08:04;;;;;;;2.67;1.30;;;7.60;99.90;;;;;;4992258;28;20042;-61
2021/11/24 09:10:31;;;;;;;4.05;1.60;;;7.60;99.90;;;;;;4992165;28;20035;-61
2021/11/24 09:12:58;;;;;;;6.90;1.50;;;7.60;99.90;;;;;;4992159;28;20125;-61
2021/11/24 09:15:25;;;;;;;3.05;1.90;;;7.60;99.90;;;;;;4992346;28;20045;-61
2021/11/24 09:17:50;;;;;;;4.40;1.70;;;7.60;99.90;;;;;;4992166;28;20046;-61
2021/11/24 09:20:17;;;;;;;2.55;1.40;;;7.60;99.90;;;;;;4992351;28;20596;-61
2021/11/24 09:22:45;;;;;;;7.45;2.20;;;7.70;99.90;;;;;;4991887;28;20085;-61
2021/11/24 09:25:16;;;;;;;4.70;1.60;;;7.70;99.90;;;;;;4992216;28;20049;-61
2021/11/24 09:27:56;;;;;;;2.60;1.60;;;7.70;99.90;;;;;;4992204;28;20061;-61
2021/11/24 09:30:22;;;;;;;5.78;1.70;;;7.70;99.90;;;;;;4990983;28;20035;-61
2021/11/24 09:32:47;;;;;;;2.80;1.50;;;7.70;99.90;;;;;;4992010;28;20125;-60
2021/11/24 09:35:15;;;;;;;4.03;1.77;;;7.80;99.90;;;;;;4991916;28;20039;-61
2021/11/24 09:37:40;;;;;;;5.00;1.60;;;7.80;99.90;;;;;;4992021;28;20117;-60
2021/11/24 09:40:07;;;;;;;3.38;2.03;;;7.80;99.90;;;;;;4992114;28;20164;-60
2021/11/24 09:42:35;;;;;;;6.05;1.90;;;7.80;99.90;;;;;;4992043;28;20046;-61
2021/11/24 09:45:03;;;;;;;2.58;1.30;;;7.90;99.90;;;;;;4992000;28;20049;-61
2021/11/24 09:47:29;;;;;;;5.72;1.50;;;7.90;99.90;;;;;;4991903;28;20053;-58
2021/11/24 09:49:59;;;;;;;7.65;1.63;;;7.90;99.90;;;;;;4993033;28;20038;-61
2021/11/24 09:52:26;;;;;;;2.47;1.33;;;7.90;99.90;;;;;;4995822;28;20435;-61
2021/11/24 09:54:53;;;;;;;4.18;1.58;;;7.90;99.90;;;;;;4995621;28;20104;-61
2021/11/24 09:57:23;;;;;;;3.25;1.85;;;8.00;99.90;;;;;;4995581;28;20039;-61
2021/11/24 09:59:49;;;;;;;3.33;1.52;;;8.00;99.90;;;;;;4995721;28;20042;-60
2021/11/24 10:02:16;;;;;;;5.63;1.55;;;8.00;99.90;;;;;;4995454;28;20054;-61
2021/11/24 10:04:43;;;;;;;3.50;1.45;;;8.00;99.90;;;;;;4995662;28;20698;-61
2021/11/24 10:07:13;;;;;;;5.03;1.85;;;8.00;99.90;;;;;;4995735;28;20534;-61
2021/11/24 10:09:40;;;;;;;5.35;1.50;;;8.00;99.90;;;;;;4995401;28;20397;-61
2021/11/24 10:12:07;;;;;;;4.05;1.30;;;8.10;99.90;;;;;;4995207;28;20126;-61
2021/11/24 10:14:33;;;;;;;3.10;1.65;;;8.10;99.90;;;;;;4995032;28;20503;-61
2021/11/24 10:17:15;;;;;;;6.13;1.33;;;8.10;99.90;;;;;;4995028;28;20053;-61
2021/11/24 10:20:07;;;;;;;2.05;1.38;;;8.10;99.90;;;;;;4993897;28;20377;-61
2021/11/24 10:22:39;;;;;;;5.72;1.55;;;8.10;99.90;;;;;;4995062;28;20058;-61
2021/11/24 10:25:16;;;;;;;9.10;1.50;;;8.10;99.90;;;;;;4994895;28;20369;-61
2021/11/24 10:27:47;;;;;;;4.90;1.65;;;8.10;99.90;;;;;;4995172;28;20085;-61
2021/11/24 10:30:29;;;;;;;4.18;2.25;;;8.10;99.90;;;;;;4994917;28;20069;-60
2021/11/24 10:33:14;;;;;;;4.22;1.63;;;8.10;99.90;;;;;;4994973;28;20161;-61
2021/11/24 10:35:40;;;;;;;9.07;2.03;;;8.20;99.90;;;;;;4994663;28;20502;-61
2021/11/24 10:38:17;;;;;;;4.85;1.60;;;8.20;99.90;;;;;;4994926;28;20038;-61
2021/11/24 10:40:45;;;;;;;2.97;1.92;;;8.20;99.90;;;;;;4994921;28;20053;-61
2021/11/24 10:43:13;;;;;;;6.10;2.23;;;8.20;99.90;;;;;;4994717;28;20169;-61
2021/11/24 10:45:50;;;;;;;2.60;1.60;;;8.20;99.90;;;;;;4994873;28;20273;-61
2021/11/24 10:48:27;;;;;;;3.70;1.70;;;8.30;99.90;;;;;;4994864;28;20038;-61
2021/11/24 10:50:55;;;;;;;5.63;1.63;;;8.30;99.90;;;;;;4995100;28;20038;-61
2021/11/24 10:53:22;;;;;;;3.90;1.95;;;8.30;99.90;;;;;;4994896;28;20054;-61
2021/11/24 10:55:47;;;;;;;1.50;1.40;;;8.30;99.90;;;;;;4994629;28;20567;-61
2021/11/24 10:58:24;;;;;;;2.70;1.30;;;8.30;99.90;;;;;;4994409;28;20049;-61
2021/11/24 11:00:53;;;;;;;4.50;1.50;;;8.30;99.90;;;;;;4993448;28;20066;-61
2021/11/24 11:03:21;;;;;;;3.30;1.77;;;8.30;99.90;;;;;;4994034;28;20145;-61
2021/11/24 11:05:53;;;;;;;3.27;1.67;;;8.30;99.90;;;;;;4994391;28;20378;-61
2021/11/24 11:08:18;;;;;;;3.78;1.50;;;8.30;99.90;;;;;;4994287;28;20042;-61
2021/11/24 11:10:47;;;;;;;6.22;1.88;;;8.30;99.90;;;;;;4994176;28;20041;-61
2021/11/24 11:13:22;;;;;;;3.15;1.63;;;8.30;99.90;;;;;;4992779;28;20042;-61
2021/11/24 11:15:51;;;;;;;2.35;1.90;;;8.30;99.90;;;;;;4993936;28;20046;-60
2021/11/24 11:18:26;;;;;;;6.20;1.63;;;8.30;99.90;;;;;;4994142;28;20034;-61
2021/11/24 11:21:03;;;;;;;7.15;1.65;;;8.30;99.90;;;;;;4993781;28;20064;-61
2021/11/24 11:23:43;;;;;;;2.08;1.50;;;8.30;99.90;;;;;;4993803;28;20050;-61
2021/11/24 11:26:11;;;;;;;;;;;8.30;99.90;;;;;;4994443;28;20097;-60
2021/11/24 11:28:43;;;;;;;4.85;2.15;;;8.20;99.90;;;;;;4993971;28;19987;-60
2021/11/24 11:31:11;;;;;;;4.00;1.60;;;8.30;99.90;;;;;;4994366;28;20039;-60
2021/11/24 11:33:52;;;;;;;4.07;2.00;;;8.30;99.90;;;;;;4993929;28;20404;-60
2021/11/24 11:36:19;;;;;;;4.13;1.80;;;8.30;99.90;;;;;;4993631;28;20495;-60
2021/11/24 11:38:49;;;;;;;4.55;1.98;;;8.30;99.90;;;;;;4993745;28;20070;-61
2021/11/24 11:41:21;;;;;;;7.57;2.30;;;8.30;99.90;;;;;;4993704;28;20444;-61
2021/11/24 11:43:52;;;;;;;3.03;2.03;;;8.30;99.90;;;;;;4993422;28;20042;-61
2021/11/24 11:46:24;;;;;;;3.67;2.10;;;8.30;99.90;;;;;;4993403;28;20046;-60
2021/11/24 11:48:52;;;;;;;4.28;2.38;;;8.30;99.90;;;;;;4993647;28;20046;-61
2021/11/24 11:51:32;;;;;;;4.57;1.65;;;8.30;99.90;;;;;;4993184;28;20034;-60
2021/11/24 11:53:59;;;;;;;3.42;1.70;;;8.30;99.90;;;;;;4993563;28;20404;-60
2021/11/24 11:56:31;;;;;;;4.03;1.95;;;8.30;99.90;;;;;;4993263;28;20117;-61
2021/11/24 11:59:00;;;;;;;4.97;2.78;;;8.30;99.90;;;;;;4993139;28;20097;-61
2021/11/24 12:01:41;;;;;;;3.88;2.17;;;8.40;99.90;;;;;;4993085;28;20508;-58
2021/11/24 12:04:17;;;;;;;5.10;2.38;;;8.30;99.90;;;;;;4993223;28;20078;-60
2021/11/24 12:06:47;;;;;;;4.43;2.30;;;8.40;99.90;;;;;;4993057;28;20038;-60
2021/11/24 12:09:34;;;;;;;3.45;2.20;;;8.40;99.90;;;;;;4993089;28;20050;-60
2021/11/24 12:12:00;;;;;;;5.30;2.50;;;8.30;99.90;;;;;;4992116;28;20057;-60
2021/11/24 12:14:43;;;;;;;4.50;2.25;;;8.30;99.90;;;;;;4992699;28;20053;-61
2021/11/24 12:17:37;;;;;;;5.32;2.28;;;8.30;99.90;;;;;;4992988;28;20539;-61
2021/11/24 12:20:16;;;;;;;4.57;2.25;;;8.30;99.90;;;;;;4992819;28;20052;-61
2021/11/24 12:25:29;;;;;;;4.97;1.95;;;8.30;99.90;;;;;;4992837;28;20301;-60
2021/11/24 12:27:58;;;;;;;6.32;2.28;;;8.30;99.90;;;;;;4992760;28;20050;-61
2021/11/24 12:30:40;;;;;;;5.00;2.15;;;8.30;99.90;;;;;;4992561;28;20038;-61
2021/11/24 12:33:13;;;;;;;5.70;2.47;;;8.40;99.90;;;;;;4992984;28;20062;-60
2021/11/24 12:36:04;;;;;;;2.53;2.17;;;8.30;99.90;;;;;;4992746;28;20042;-60
2021/11/24 12:38:44;;;;;;;4.95;2.80;;;8.40;99.90;;;;;;4992686;28;20088;-60
2021/11/24 12:41:16;;;;;;;3.17;2.15;;;8.30;99.90;;;;;;4992823;28;20053;-61
2021/11/24 12:43:49;;;;;;;4.82;2.30;;;8.40;99.90;;;;;;4992609;28;20108;-60
2021/11/24 12:46:34;;;;;;;3.85;1.70;;;8.40;99.90;;;;;;4992495;28;20373;-60
2021/11/24 12:49:02;;;;;;;1.95;1.75;;;8.40;99.90;;;;;;4992453;28;20481;-60
2021/11/24 12:51:39;;;;;;;3.42;1.70;;;8.40;99.90;;;;;;4992630;28;20069;-60
2021/11/24 12:54:07;;;;;;;3.85;1.80;;;8.50;99.90;;;;;;4992637;28;20076;-61
2021/11/24 12:56:39;;;;;;;3.20;1.88;;;8.50;99.90;;;;;;4993054;28;20046;-61
2021/11/24 12:59:08;;;;;;;5.43;2.05;;;8.50;99.90;;;;;;4992760;28;20073;-60
2021/11/24 13:01:39;;;;;;;2.30;1.80;;;8.50;99.90;;;;;;4992155;28;20049;-60
2021/11/24 13:04:09;;;;;;;2.85;2.13;;;8.50;99.90;;;;;;4992360;28;20047;-61